Time;durP1;ratioP1;P1;durP2;ratioP2;P2;SDS_P1;SDS_P2;PMS_P1;PMS_P2;Temp;Humidity;BMP_temperature;BMP_pressure;BME280_temperature;BME280_humidity;BME280_pressure;Samples;Min_cycle;Max_cycle;Signal;HPM_P1;HPM_P2
2023/01/23 00:10:00;;;;;;;10.57;6.10;;;;;;;22.54;35.51;101191.31;21081004;28;20036;-64
2023/01/23 00:20:03;;;;;;;15.20;8.25;;;;;;;22.50;36.32;101156.78;21067487;28;20094;-64
2023/01/23 00:30:05;;;;;;;15.70;9.07;;;;;;;22.50;35.81;101140.06;21074415;28;20449;-64
2023/01/23 00:40:07;;;;;;;11.98;7.53;;;;;;;22.49;36.03;101089.00;21080143;28;20043;-64
2023/01/23 00:50:13;;;;;;;11.63;7.30;;;;;;;22.46;35.74;101085.97;21063673;28;20028;-63
2023/01/23 01:00:18;;;;;;;10.65;6.18;;;;;;;22.39;36.02;101043.63;21040476;28;20040;-62
2023/01/23 01:10:19;;;;;;;9.48;6.05;;;;;;;22.45;35.62;101009.00;21061884;28;20048;-62
2023/01/23 01:20:22;;;;;;;9.23;6.03;;;;;;;22.42;36.02;100987.28;21056834;28;20051;-62
2023/01/23 01:30:25;;;;;;;8.80;5.18;;;;;;;22.43;36.20;100938.75;21054812;28;20093;-62
2023/01/23 01:40:33;;;;;;;8.82;5.43;;;;;;;22.41;36.24;100890.84;21040386;28;20094;-63
2023/01/23 01:50:35;;;;;;;7.67;4.90;;;;;;;22.42;36.16;100870.19;21065231;28;20048;-63
2023/01/23 02:00:36;;;;;;;6.60;4.25;;;;;;;22.17;36.33;100796.78;21066120;28;20383;-63
2023/01/23 02:10:41;;;;;;;7.93;4.35;;;;;;;22.38;36.07;100814.16;21061650;28;20101;-64
2023/01/23 02:20:42;;;;;;;6.72;3.90;;;;;;;22.38;36.08;100807.75;21056594;28;20032;-62
2023/01/23 02:30:49;;;;;;;5.68;3.83;;;;;;;22.31;36.29;100791.38;21071954;28;20036;-65
2023/01/23 02:40:53;;;;;;;4.95;3.33;;;;;;;22.34;36.44;100807.50;21060482;28;20064;-65
2023/01/23 02:50:55;;;;;;;6.45;3.30;;;;;;;22.35;35.99;100797.19;21080605;28;20042;-64
2023/01/23 03:00:56;;;;;;;4.70;3.47;;;;;;;22.29;36.21;100727.56;21077277;28;20048;-65
2023/01/23 03:11:04;;;;;;;4.65;3.63;;;;;;;22.13;36.14;100622.97;21065910;28;20040;-65
2023/01/23 03:21:06;;;;;;;10.30;3.30;;;;;;;22.22;36.24;100587.72;21077304;28;20044;-65
2023/01/23 03:31:11;;;;;;;4.50;3.00;;;;;;;22.17;36.61;100571.06;21080538;28;20077;-66
2023/01/23 03:41:25;;;;;;;7.40;3.00;;;;;;;22.17;36.45;100551.53;21073721;28;20043;-64
2023/01/23 03:51:26;;;;;;;3.80;2.22;;;;;;;22.08;36.61;100534.66;21083994;28;20043;-64
2023/01/23 04:01:27;;;;;;;6.55;3.10;;;;;;;22.08;36.66;100478.06;21078714;28;20101;-64
2023/01/23 04:11:31;;;;;;;4.22;2.53;;;;;;;22.06;36.33;100427.41;21077014;28;20109;-64
2023/01/23 04:21:33;;;;;;;4.55;2.53;;;;;;;22.02;36.83;100413.22;21081122;28;20043;-64
2023/01/23 04:31:37;;;;;;;4.28;2.67;;;;;;;21.83;36.79;100363.09;21080513;28;20055;-65
2023/01/23 04:41:41;;;;;;;3.45;2.20;;;;;;;21.95;36.88;100345.13;21078624;28;20048;-64
2023/01/23 04:51:47;;;;;;;4.03;2.42;;;;;;;21.92;36.87;100342.91;21077056;28;20036;-64
2023/01/23 05:01:48;;;;;;;2.47;1.75;;;;;;;21.89;36.89;100313.69;21076013;28;20129;-64
2023/01/23 05:11:49;;;;;;;2.90;2.00;;;;;;;21.92;37.52;100354.06;21078277;28;20036;-63
2023/01/23 05:21:51;;;;;;;4.18;2.05;;;;;;;21.99;37.54;100346.13;21074336;28;20097;-64
2023/01/23 05:31:52;;;;;;;3.05;2.00;;;;;;;21.98;37.45;100305.47;21078080;28;20040;-65
2023/01/23 05:41:56;;;;;;;3.45;2.00;;;;;;;22.04;37.38;100273.66;21068265;28;20047;-65
2023/01/23 05:52:00;;;;;;;3.97;1.88;;;;;;;21.97;37.22;100259.25;21077003;28;20048;-64
2023/01/23 06:02:04;;;;;;;2.08;1.45;;;;;;;21.99;37.39;100271.78;21076791;28;20048;-64
2023/01/23 06:12:06;;;;;;;2.47;1.80;;;;;;;21.64;37.03;100200.78;21076217;28;20407;-64
2023/01/23 06:22:10;;;;;;;1.67;1.50;;;;;;;21.97;36.95;100267.63;21075877;28;20040;-65
2023/01/23 06:32:12;;;;;;;4.07;1.55;;;;;;;21.91;37.05;100179.72;21075701;28;20449;-63
2023/01/23 06:42:13;;;;;;;3.10;1.33;;;;;;;21.74;36.52;100128.19;21074766;28;20449;-63
2023/01/23 06:52:15;;;;;;;2.70;1.42;;;;;;;21.88;37.05;100114.28;21070659;28;20039;-64
2023/01/23 07:02:16;;;;;;;1.70;1.33;;;;;;;21.86;36.48;100093.47;21073762;28;20093;-64
2023/01/23 07:12:17;;;;;;;1.60;1.17;;;;;;;21.67;36.54;100082.38;21075904;28;20044;-63
2023/01/23 07:22:20;;;;;;;1.23;1.13;;;;;;;21.81;36.17;100127.81;21083456;28;20394;-63
2023/01/23 07:32:22;;;;;;;1.60;1.20;;;;;;;21.78;36.57;100122.84;21083231;28;20070;-64
2023/01/23 07:42:23;;;;;;;1.55;1.00;;;;;;;21.75;36.71;100037.94;21081777;28;20486;-64
2023/01/23 07:52:24;;;;;;;1.95;1.23;;;;;;;21.72;36.57;100005.16;21086324;28;20040;-63
2023/01/23 08:02:29;;;;;;;1.10;0.98;;;;;;;21.57;36.80;100031.31;21084716;28;20032;-63
2023/01/23 08:12:42;;;;;;;1.13;1.02;;;;;;;21.47;36.81;100025.94;21080302;28;20032;-63
2023/01/23 08:22:43;;;;;;;0.98;0.88;;;;;;;21.75;36.46;100060.22;21077480;28;20051;-63
2023/01/23 08:32:45;;;;;;;1.10;0.77;;;;;;;21.77;36.54;100071.91;21082126;28;20036;-63
2023/01/23 08:42:47;;;;;;;0.50;0.50;;;;;;;21.81;36.20;100064.56;21067511;28;20052;-63
2023/01/23 08:52:48;;;;;;;0.90;0.80;;;;;;;21.85;36.40;100063.94;21076093;28;20491;-63
2023/01/23 09:02:50;;;;;;;0.90;0.55;;;;;;;21.88;36.24;100043.84;21073909;28;20048;-63
2023/01/23 09:12:55;;;;;;;0.57;0.55;;;;;;;21.93;36.02;100022.28;21074107;28;20036;-63
2023/01/23 09:22:56;;;;;;;0.70;0.70;;;;;;;21.94;35.79;99984.09;21074267;28;20500;-63
2023/01/23 09:33:00;;;;;;;0.75;0.60;;;;;;;21.97;35.82;99977.91;21074167;28;20395;-64
2023/01/23 09:43:26;;;;;;;0.50;0.50;;;;;;;21.94;35.83;99975.75;21069925;28;20036;-63
2023/01/23 09:53:38;;;;;;;0.77;0.77;;;;;;;21.98;35.73;99960.06;21074318;28;20097;-63
2023/01/23 10:03:40;;;;;;;0.60;0.55;;;;;;;21.96;35.94;99926.94;21073920;28;20121;-64
2023/01/23 10:13:50;;;;;;;0.60;0.60;;;;;;;21.99;35.77;99931.06;21076328;28;20456;-63
2023/01/23 10:24:01;;;;;;;0.63;0.63;;;;;;;21.98;36.15;99951.69;21070333;28;20040;-64
2023/01/23 10:34:10;;;;;;;0.63;0.60;;;;;;;21.96;36.09;99988.22;21066341;28;20109;-63
2023/01/23 10:44:16;;;;;;;0.32;0.30;;;;;;;21.87;36.40;99973.38;21071244;28;20043;-63
2023/01/23 10:54:20;;;;;;;0.40;0.40;;;;;;;21.96;36.26;99965.13;21080275;28;20066;-63
2023/01/23 11:04:25;;;;;;;0.43;0.40;;;;;;;21.92;35.94;99952.97;21083177;28;20106;-62
2023/01/23 11:14:26;;;;;;;0.60;0.50;;;;;;;21.89;36.04;99953.56;21085464;28;20040;-63
2023/01/23 11:24:33;;;;;;;0.65;0.50;;;;;;;21.85;36.06;99955.31;21078716;28;20040;-63
2023/01/23 11:34:49;;;;;;;0.77;0.40;;;;;;;21.88;36.21;99982.56;21075759;28;20062;-63
2023/01/23 11:44:50;;;;;;;0.50;0.50;;;;;;;21.89;36.08;99998.13;21080331;28;20040;-64
2023/01/23 11:55:03;;;;;;;0.50;0.40;;;;;;;21.81;36.44;100036.72;21077562;28;20040;-63
2023/01/23 12:05:23;;;;;;;0.30;0.30;;;;;;;21.81;36.23;100059.00;21072402;28;20097;-63
2023/01/23 12:15:57;;;;;;;0.80;0.40;;;;;;;21.79;36.51;100038.16;21068599;28;20560;-65
2023/01/23 12:26:21;;;;;;;1.08;0.40;;;;;;;21.74;37.09;100052.19;21035132;28;20048;-63
2023/01/23 12:36:58;;;;;;;3.25;0.68;;;;;;;21.71;37.15;100081.47;21082877;28;20048;-62
2023/01/23 12:47:15;;;;;;;3.45;0.50;;;;;;;21.74;37.22;100114.28;21080255;28;20702;-63
2023/01/23 12:57:38;;;;;;;0.60;0.40;;;;;;;21.69;37.16;100135.81;21034890;28;20098;-63
2023/01/23 13:07:58;;;;;;;0.55;0.50;;;;;;;21.67;37.53;100141.69;21067279;28;20097;-63
2023/01/23 13:18:01;;;;;;;6.25;0.90;;;;;;;21.72;37.15;100143.56;21079025;28;20036;-63
2023/01/23 13:28:28;;;;;;;1.08;0.75;;;;;;;21.66;37.02;100156.72;21079382;28;20036;-63
2023/01/23 13:38:36;;;;;;;1.33;0.80;;;;;;;21.68;36.88;100168.41;21078210;28;20032;-63
2023/01/23 13:59:34;;;;;;;1.95;0.80;;;;;;;21.63;36.78;100179.63;21077377;28;20040;-63
2023/01/23 14:09:41;;;;;;;2.72;0.80;;;;;;;21.63;36.80;100190.78;21076731;28;20541;-63
2023/01/23 14:19:55;;;;;;;2.50;0.60;;;;;;;21.33;36.89;100157.84;21076718;28;20113;-63
2023/01/23 14:29:58;;;;;;;1.55;0.85;;;;;;;21.34;36.93;100168.66;21091061;28;20100;-64
2023/01/23 14:40:01;;;;;;;5.20;1.00;;;;;;;21.56;36.68;100193.09;21092269;28;20048;-64
2023/01/23 14:50:07;;;;;;;2.42;0.73;;;;;;;21.53;37.05;100189.00;21091935;28;20040;-64
2023/01/23 15:00:16;;;;;;;1.13;0.63;;;;;;;21.48;36.88;100191.00;21091198;28;20078;-64
2023/01/23 15:10:22;;;;;;;1.42;0.70;;;;;;;21.39;36.80;100185.28;21090190;28;20475;-64
2023/01/23 15:20:29;;;;;;;1.23;0.73;;;;;;;21.45;36.93;100217.50;21088244;28;20044;-64
2023/01/23 15:30:30;;;;;;;1.35;0.68;;;;;;;21.43;36.66;100210.56;21088798;28;20042;-64
2023/01/23 15:40:35;;;;;;;1.13;0.60;;;;;;;21.21;36.73;100181.38;21087060;28;20043;-64
2023/01/23 15:50:37;;;;;;;1.27;0.70;;;;;;;21.38;37.03;100221.78;21086901;28;20040;-64
2023/01/23 16:00:41;;;;;;;1.15;0.85;;;;;;;21.32;36.87;100212.69;21086371;28;20048;-64
2023/01/23 16:10:43;;;;;;;0.95;0.60;;;;;;;21.26;37.21;100217.47;21085641;28;20040;-64
2023/01/23 16:20:45;;;;;;;1.42;0.70;;;;;;;21.36;36.65;100235.19;21084248;28;20066;-64
2023/01/23 16:30:48;;;;;;;2.53;0.70;;;;;;;21.37;36.69;100236.84;21082938;28;20040;-64
2023/01/23 16:40:51;;;;;;;0.77;0.55;;;;;;;21.37;36.41;100237.66;21082657;28;20474;-63
2023/01/23 16:50:57;;;;;;;1.20;0.50;;;;;;;21.42;36.42;100250.66;21081357;28;20097;-63
2023/01/23 17:01:07;;;;;;;0.50;0.50;;;;;;;21.44;36.29;100260.38;21081935;28;20437;-63
2023/01/23 17:11:17;;;;;;;0.80;0.50;;;;;;;21.33;36.66;100241.34;21079748;28;20040;-63
2023/01/23 17:21:32;;;;;;;1.02;0.38;;;;;;;21.50;36.46;100264.75;21079393;28;20044;-63
2023/01/23 17:31:33;;;;;;;0.47;0.47;;;;;;;21.59;36.40;100272.41;21078569;28;20093;-64
2023/01/23 17:41:35;;;;;;;0.43;0.40;;;;;;;21.63;36.29;100274.31;21077992;28;20097;-64
2023/01/23 17:51:36;;;;;;;0.50;0.50;;;;;;;21.69;36.18;100277.81;21077680;28;20043;-64
2023/01/23 18:01:37;;;;;;;0.75;0.60;;;;;;;21.70;36.08;100287.81;21076422;28;20043;-64
2023/01/23 18:11:42;;;;;;;0.60;0.60;;;;;;;21.33;36.33;100253.28;21076400;28;20028;-64
2023/01/23 18:21:46;;;;;;;0.82;0.43;;;;;;;21.71;36.08;100332.06;21076220;28;20445;-63
2023/01/23 18:32:02;;;;;;;0.50;0.50;;;;;;;21.71;36.15;100354.34;21075556;28;20048;-64
2023/01/23 18:42:21;;;;;;;0.77;0.60;;;;;;;21.72;36.30;100372.75;21075183;28;20048;-63
2023/01/23 18:52:51;;;;;;;0.60;0.55;;;;;;;21.67;36.27;100392.31;21075457;28;20062;-64
2023/01/23 19:02:56;;;;;;;1.55;0.60;;;;;;;21.73;36.22;100429.25;21073110;28;20036;-64
2023/01/23 19:13:12;;;;;;;0.50;0.50;;;;;;;21.72;35.94;100428.44;21083863;28;20036;-64
2023/01/23 19:23:25;;;;;;;0.32;0.32;;;;;;;21.71;36.08;100457.38;21088655;28;20040;-64
2023/01/23 19:33:26;;;;;;;0.77;0.40;;;;;;;21.71;36.15;100499.16;21088216;28;20047;-64
2023/01/23 19:43:28;;;;;;;0.70;0.70;;;;;;;21.69;36.39;100518.13;21087830;28;20532;-64
2023/01/23 19:53:29;;;;;;;0.50;0.50;;;;;;;21.69;36.21;100534.00;21086154;28;20078;-64
2023/01/23 20:03:36;;;;;;;0.40;0.40;;;;;;;21.63;36.34;100558.31;21085893;28;20487;-64
2023/01/23 20:13:41;;;;;;;0.55;0.40;;;;;;;21.67;36.40;100587.22;21084965;28;20040;-64
2023/01/23 20:23:43;;;;;;;0.95;0.80;;;;;;;21.64;36.20;100606.47;21084339;28;20043;-64
2023/01/23 20:33:45;;;;;;;0.55;0.50;;;;;;;21.63;36.13;100618.75;21084062;28;20051;-64
2023/01/23 20:43:46;;;;;;;0.57;0.52;;;;;;;21.59;36.06;100646.34;21082848;28;20071;-64
2023/01/23 20:53:49;;;;;;;0.40;0.40;;;;;;;21.58;35.86;100658.59;21082443;28;20039;-64
2023/01/23 21:03:50;;;;;;;0.40;0.40;;;;;;;21.38;35.80;100650.41;21081067;28;20048;-64
2023/01/23 21:13:53;;;;;;;0.93;0.80;;;;;;;21.53;35.87;100708.72;21081177;28;20036;-63
2023/01/23 21:23:57;;;;;;;0.85;0.75;;;;;;;21.49;35.87;100730.78;21079331;28;20548;-64
2023/01/23 21:34:01;;;;;;;0.73;0.70;;;;;;;21.26;36.07;100704.47;21078396;28;20560;-64
2023/01/23 21:44:02;;;;;;;0.70;0.70;;;;;;;21.44;35.87;100766.16;21078358;28;20040;-62
2023/01/23 21:54:04;;;;;;;1.08;0.80;;;;;;;21.41;35.98;100798.19;21077328;28;20044;-63
2023/01/23 22:04:22;;;;;;;1.02;0.77;;;;;;;21.41;35.97;100814.06;21076058;28;20445;-65
2023/01/23 22:14:24;;;;;;;1.00;1.00;;;;;;;21.31;35.94;100840.00;21076093;28;20047;-64
2023/01/23 22:24:25;;;;;;;0.77;0.75;;;;;;;21.34;35.84;100883.13;21073808;28;20048;-63
2023/01/23 22:34:32;;;;;;;0.80;0.80;;;;;;;21.31;36.16;100890.13;21075260;28;20051;-63
2023/01/23 22:44:33;;;;;;;0.80;0.80;;;;;;;21.21;36.22;100912.34;21079765;28;20036;-63
2023/01/23 22:54:34;;;;;;;1.40;1.20;;;;;;;21.25;36.17;100950.47;21091692;28;20040;-63
2023/01/23 23:04:36;;;;;;;1.10;1.00;;;;;;;21.18;36.26;100961.09;21090644;28;20471;-63
2023/01/23 23:14:38;;;;;;;0.90;0.85;;;;;;;21.09;36.09;100982.25;21089788;28;20407;-63
2023/01/23 23:24:39;;;;;;;1.05;0.95;;;;;;;21.04;36.27;100996.19;21089029;28;20044;-64
2023/01/23 23:34:40;;;;;;;1.10;1.00;;;;;;;21.12;36.01;101030.94;21088489;28;20113;-64
2023/01/23 23:44:45;;;;;;;3.35;1.27;;;;;;;21.09;36.19;101060.16;21087959;28;20036;-64
2023/01/23 23:54:49;;;;;;;8.40;4.28;;;;;;;21.09;36.52;101085.22;21085978;28;20070;-64
